sensor_id;sensor_type;location;lat;lon;timestamp;P1;durP1;ratioP1;P2;durP2;ratioP2
51618;SDS011;38518;53.164;5.430;2022-09-13T00:01:30;13.80;;;9.90;;
51618;SDS011;38518;53.164;5.430;2022-09-13T00:03:56;17.58;;;10.45;;
51618;SDS011;38518;53.164;5.430;2022-09-13T00:06:22;12.52;;;9.82;;
51618;SDS011;38518;53.164;5.430;2022-09-13T00:08:48;10.98;;;8.05;;
51618;SDS011;38518;53.164;5.430;2022-09-13T00:11:19;13.05;;;8.02;;
51618;SDS011;38518;53.164;5.430;2022-09-13T00:16:17;9.80;;;6.72;;
51618;SDS011;38518;53.164;5.430;2022-09-13T00:18:43;10.20;;;7.72;;
51618;SDS011;38518;53.164;5.430;2022-09-13T00:21:11;13.63;;;8.15;;
51618;SDS011;38518;53.164;5.430;2022-09-13T00:23:39;11.20;;;7.90;;
51618;SDS011;38518;53.164;5.430;2022-09-13T00:26:08;9.68;;;6.93;;
51618;SDS011;38518;53.164;5.430;2022-09-13T00:28:36;12.43;;;6.28;;
51618;SDS011;38518;53.164;5.430;2022-09-13T00:31:02;8.98;;;6.53;;
51618;SDS011;38518;53.164;5.430;2022-09-13T00:33:29;7.85;;;5.80;;
51618;SDS011;38518;53.164;5.430;2022-09-13T00:35:55;9.07;;;6.55;;
51618;SDS011;38518;53.164;5.430;2022-09-13T00:38:21;8.38;;;5.05;;
51618;SDS011;38518;53.164;5.430;2022-09-13T00:40:47;6.55;;;5.20;;
51618;SDS011;38518;53.164;5.430;2022-09-13T00:43:20;8.15;;;5.32;;
51618;SDS011;38518;53.164;5.430;2022-09-13T00:46:04;6.25;;;5.10;;
51618;SDS011;38518;53.164;5.430;2022-09-13T00:48:30;7.82;;;5.35;;
51618;SDS011;38518;53.164;5.430;2022-09-13T00:50:58;7.97;;;5.28;;
51618;SDS011;38518;53.164;5.430;2022-09-13T00:53:33;6.43;;;5.28;;
51618;SDS011;38518;53.164;5.430;2022-09-13T00:56:14;7.78;;;5.05;;
51618;SDS011;38518;53.164;5.430;2022-09-13T00:58:56;8.02;;;5.72;;
51618;SDS011;38518;53.164;5.430;2022-09-13T01:01:31;7.38;;;4.88;;
51618;SDS011;38518;53.164;5.430;2022-09-13T01:04:02;6.95;;;5.30;;
51618;SDS011;38518;53.164;5.430;2022-09-13T01:06:28;7.88;;;5.65;;
51618;SDS011;38518;53.164;5.430;2022-09-13T01:08:57;7.03;;;5.40;;
51618;SDS011;38518;53.164;5.430;2022-09-13T01:14:05;9.00;;;5.63;;
51618;SDS011;38518;53.164;5.430;2022-09-13T01:16:32;9.32;;;6.00;;
51618;SDS011;38518;53.164;5.430;2022-09-13T01:18:58;10.85;;;5.80;;
51618;SDS011;38518;53.164;5.430;2022-09-13T01:25:29;10.40;;;5.70;;
51618;SDS011;38518;53.164;5.430;2022-09-13T01:33:00;9.18;;;5.22;;
51618;SDS011;38518;53.164;5.430;2022-09-13T01:39:07;12.38;;;5.90;;
51618;SDS011;38518;53.164;5.430;2022-09-13T01:44:43;12.27;;;5.53;;
51618;SDS011;38518;53.164;5.430;2022-09-13T01:50:07;10.23;;;5.53;;
51618;SDS011;38518;53.164;5.430;2022-09-13T01:53:05;10.20;;;5.40;;
51618;SDS011;38518;53.164;5.430;2022-09-13T01:55:38;11.75;;;6.22;;
51618;SDS011;38518;53.164;5.430;2022-09-13T01:58:07;13.25;;;5.57;;
51618;SDS011;38518;53.164;5.430;2022-09-13T02:00:50;10.27;;;4.80;;
51618;SDS011;38518;53.164;5.430;2022-09-13T02:03:22;7.03;;;2.22;;
51618;SDS011;38518;53.164;5.430;2022-09-13T02:06:01;4.35;;;2.10;;
51618;SDS011;38518;53.164;5.430;2022-09-13T02:08:43;3.03;;;1.20;;
51618;SDS011;38518;53.164;5.430;2022-09-13T02:11:21;2.97;;;1.10;;
51618;SDS011;38518;53.164;5.430;2022-09-13T02:13:49;3.40;;;1.50;;
51618;SDS011;38518;53.164;5.430;2022-09-13T02:16:30;4.47;;;1.33;;
51618;SDS011;38518;53.164;5.430;2022-09-13T02:19:04;3.72;;;1.27;;
51618;SDS011;38518;53.164;5.430;2022-09-13T02:21:38;5.43;;;1.40;;
51618;SDS011;38518;53.164;5.430;2022-09-13T02:24:13;5.50;;;1.30;;
51618;SDS011;38518;53.164;5.430;2022-09-13T02:26:49;4.03;;;1.42;;
51618;SDS011;38518;53.164;5.430;2022-09-13T02:29:19;5.07;;;1.70;;
51618;SDS011;38518;53.164;5.430;2022-09-13T02:31:55;6.30;;;1.42;;
51618;SDS011;38518;53.164;5.430;2022-09-13T02:34:31;5.10;;;1.38;;
51618;SDS011;38518;53.164;5.430;2022-09-13T02:37:02;6.07;;;1.60;;
51618;SDS011;38518;53.164;5.430;2022-09-13T02:39:31;5.60;;;1.20;;
51618;SDS011;38518;53.164;5.430;2022-09-13T02:42:05;5.38;;;1.60;;
51618;SDS011;38518;53.164;5.430;2022-09-13T02:44:42;3.40;;;1.20;;
51618;SDS011;38518;53.164;5.430;2022-09-13T02:58:10;4.20;;;1.48;;
51618;SDS011;38518;53.164;5.430;2022-09-13T03:00:41;2.35;;;0.90;;
51618;SDS011;38518;53.164;5.430;2022-09-13T03:03:07;3.70;;;1.17;;
51618;SDS011;38518;53.164;5.430;2022-09-13T03:05:36;3.20;;;1.20;;
51618;SDS011;38518;53.164;5.430;2022-09-13T03:08:02;2.67;;;1.13;;
51618;SDS011;38518;53.164;5.430;2022-09-13T03:10:34;4.03;;;1.08;;
51618;SDS011;38518;53.164;5.430;2022-09-13T03:15:50;8.65;;;1.23;;
51618;SDS011;38518;53.164;5.430;2022-09-13T03:18:45;4.30;;;1.30;;
51618;SDS011;38518;53.164;5.430;2022-09-13T03:21:40;3.13;;;1.15;;
51618;SDS011;38518;53.164;5.430;2022-09-13T03:29:26;1.80;;;1.17;;
51618;SDS011;38518;53.164;5.430;2022-09-13T03:35:06;6.68;;;1.42;;
51618;SDS011;38518;53.164;5.430;2022-09-13T03:37:35;2.90;;;1.13;;
51618;SDS011;38518;53.164;5.430;2022-09-13T03:45:10;4.65;;;1.65;;
51618;SDS011;38518;53.164;5.430;2022-09-13T03:47:39;3.40;;;1.27;;
51618;SDS011;38518;53.164;5.430;2022-09-13T03:50:08;3.80;;;1.58;;
51618;SDS011;38518;53.164;5.430;2022-09-13T03:52:38;4.65;;;1.42;;
51618;SDS011;38518;53.164;5.430;2022-09-13T03:55:04;6.05;;;1.50;;
51618;SDS011;38518;53.164;5.430;2022-09-13T03:57:30;5.35;;;1.77;;
51618;SDS011;38518;53.164;5.430;2022-09-13T03:59:56;4.20;;;1.70;;
51618;SDS011;38518;53.164;5.430;2022-09-13T04:02:22;5.25;;;1.52;;
51618;SDS011;38518;53.164;5.430;2022-09-13T04:04:50;8.65;;;2.03;;
51618;SDS011;38518;53.164;5.430;2022-09-13T04:07:17;7.63;;;1.67;;
51618;SDS011;38518;53.164;5.430;2022-09-13T04:09:45;5.15;;;1.95;;
51618;SDS011;38518;53.164;5.430;2022-09-13T04:12:15;5.35;;;1.73;;
51618;SDS011;38518;53.164;5.430;2022-09-13T04:14:41;5.78;;;1.92;;
51618;SDS011;38518;53.164;5.430;2022-09-13T04:17:08;4.93;;;1.75;;
51618;SDS011;38518;53.164;5.430;2022-09-13T04:19:34;4.80;;;1.90;;
51618;SDS011;38518;53.164;5.430;2022-09-13T04:22:00;3.72;;;1.80;;
51618;SDS011;38518;53.164;5.430;2022-09-13T04:24:26;6.15;;;1.77;;
51618;SDS011;38518;53.164;5.430;2022-09-13T04:26:54;4.85;;;1.70;;
51618;SDS011;38518;53.164;5.430;2022-09-13T04:29:20;6.10;;;1.40;;
51618;SDS011;38518;53.164;5.430;2022-09-13T04:31:48;8.68;;;1.83;;
51618;SDS011;38518;53.164;5.430;2022-09-13T04:34:14;6.93;;;1.95;;
51618;SDS011;38518;53.164;5.430;2022-09-13T04:36:42;7.38;;;1.70;;
51618;SDS011;38518;53.164;5.430;2022-09-13T04:39:11;5.20;;;1.83;;
51618;SDS011;38518;53.164;5.430;2022-09-13T04:41:40;7.50;;;1.83;;
51618;SDS011;38518;53.164;5.430;2022-09-13T04:44:08;5.75;;;1.58;;
51618;SDS011;38518;53.164;5.430;2022-09-13T04:46:34;6.40;;;1.90;;
51618;SDS011;38518;53.164;5.430;2022-09-13T04:49:00;4.80;;;1.45;;
51618;SDS011;38518;53.164;5.430;2022-09-13T04:51:26;6.80;;;1.98;;
51618;SDS011;38518;53.164;5.430;2022-09-13T04:53:52;7.28;;;1.60;;
51618;SDS011;38518;53.164;5.430;2022-09-13T04:56:19;4.80;;;1.60;;
51618;SDS011;38518;53.164;5.430;2022-09-13T04:58:47;8.18;;;1.77;;
51618;SDS011;38518;53.164;5.430;2022-09-13T05:01:16;7.95;;;2.20;;
51618;SDS011;38518;53.164;5.430;2022-09-13T05:03:42;10.50;;;2.33;;
51618;SDS011;38518;53.164;5.430;2022-09-13T05:06:13;6.90;;;2.03;;
51618;SDS011;38518;53.164;5.430;2022-09-13T05:08:42;5.72;;;1.92;;
51618;SDS011;38518;53.164;5.430;2022-09-13T05:11:08;5.65;;;1.95;;
51618;SDS011;38518;53.164;5.430;2022-09-13T05:13:35;8.25;;;2.05;;
51618;SDS011;38518;53.164;5.430;2022-09-13T05:16:04;9.77;;;2.28;;
51618;SDS011;38518;53.164;5.430;2022-09-13T05:18:32;6.85;;;1.83;;
51618;SDS011;38518;53.164;5.430;2022-09-13T05:20:59;4.93;;;1.83;;
51618;SDS011;38518;53.164;5.430;2022-09-13T05:23:26;6.93;;;1.88;;
51618;SDS011;38518;53.164;5.430;2022-09-13T05:25:58;6.25;;;1.88;;
51618;SDS011;38518;53.164;5.430;2022-09-13T05:28:26;8.50;;;1.90;;
51618;SDS011;38518;53.164;5.430;2022-09-13T05:31:00;6.53;;;1.77;;
51618;SDS011;38518;53.164;5.430;2022-09-13T05:33:35;7.30;;;2.00;;
51618;SDS011;38518;53.164;5.430;2022-09-13T05:36:03;8.43;;;1.98;;
51618;SDS011;38518;53.164;5.430;2022-09-13T05:38:30;9.05;;;2.22;;
51618;SDS011;38518;53.164;5.430;2022-09-13T05:40:59;6.72;;;2.08;;
51618;SDS011;38518;53.164;5.430;2022-09-13T05:43:27;5.70;;;2.05;;
51618;SDS011;38518;53.164;5.430;2022-09-13T05:46:04;5.78;;;1.60;;
51618;SDS011;38518;53.164;5.430;2022-09-13T05:48:31;6.68;;;1.90;;
51618;SDS011;38518;53.164;5.430;2022-09-13T05:51:20;4.82;;;2.15;;
51618;SDS011;38518;53.164;5.430;2022-09-13T05:53:46;7.00;;;2.08;;
51618;SDS011;38518;53.164;5.430;2022-09-13T05:56:14;7.05;;;2.00;;
51618;SDS011;38518;53.164;5.430;2022-09-13T05:58:42;7.57;;;1.92;;
51618;SDS011;38518;53.164;5.430;2022-09-13T06:01:09;5.75;;;1.85;;
51618;SDS011;38518;53.164;5.430;2022-09-13T06:03:36;7.88;;;1.90;;
51618;SDS011;38518;53.164;5.430;2022-09-13T06:06:02;5.65;;;1.80;;
51618;SDS011;38518;53.164;5.430;2022-09-13T06:08:29;4.13;;;1.48;;
51618;SDS011;38518;53.164;5.430;2022-09-13T06:11:03;3.75;;;1.50;;
51618;SDS011;38518;53.164;5.430;2022-09-13T06:13:30;5.20;;;1.70;;
51618;SDS011;38518;53.164;5.430;2022-09-13T06:15:57;3.55;;;1.42;;
51618;SDS011;38518;53.164;5.430;2022-09-13T06:18:24;3.58;;;1.58;;
51618;SDS011;38518;53.164;5.430;2022-09-13T06:20:56;4.10;;;1.17;;
51618;SDS011;38518;53.164;5.430;2022-09-13T06:23:23;3.80;;;1.13;;
51618;SDS011;38518;53.164;5.430;2022-09-13T06:25:50;4.55;;;1.50;;
51618;SDS011;38518;53.164;5.430;2022-09-13T06:28:27;3.28;;;1.40;;
51618;SDS011;38518;53.164;5.430;2022-09-13T06:30:59;3.50;;;1.38;;
51618;SDS011;38518;53.164;5.430;2022-09-13T06:33:27;3.42;;;1.23;;
51618;SDS011;38518;53.164;5.430;2022-09-13T06:35:53;4.05;;;1.27;;
51618;SDS011;38518;53.164;5.430;2022-09-13T06:38:28;1.50;;;0.98;;
51618;SDS011;38518;53.164;5.430;2022-09-13T06:41:07;3.70;;;1.40;;
51618;SDS011;38518;53.164;5.430;2022-09-13T06:43:33;4.85;;;1.20;;
51618;SDS011;38518;53.164;5.430;2022-09-13T06:46:00;2.83;;;1.30;;
51618;SDS011;38518;53.164;5.430;2022-09-13T06:48:29;7.57;;;1.25;;
51618;SDS011;38518;53.164;5.430;2022-09-13T06:50:59;4.45;;;1.50;;
51618;SDS011;38518;53.164;5.430;2022-09-13T06:53:26;4.95;;;1.60;;
51618;SDS011;38518;53.164;5.430;2022-09-13T06:56:00;6.30;;;1.50;;
51618;SDS011;38518;53.164;5.430;2022-09-13T06:58:28;6.28;;;1.30;;
51618;SDS011;38518;53.164;5.430;2022-09-13T07:01:03;4.18;;;1.30;;
51618;SDS011;38518;53.164;5.430;2022-09-13T07:03:35;7.15;;;1.45;;
51618;SDS011;38518;53.164;5.430;2022-09-13T07:06:05;4.88;;;1.42;;
51618;SDS011;38518;53.164;5.430;2022-09-13T07:08:42;5.57;;;1.58;;
51618;SDS011;38518;53.164;5.430;2022-09-13T07:11:10;3.65;;;1.40;;
51618;SDS011;38518;53.164;5.430;2022-09-13T07:13:37;7.07;;;1.50;;
51618;SDS011;38518;53.164;5.430;2022-09-13T07:16:04;5.53;;;1.30;;
51618;SDS011;38518;53.164;5.430;2022-09-13T07:18:35;4.80;;;1.38;;
51618;SDS011;38518;53.164;5.430;2022-09-13T07:21:02;4.43;;;1.17;;
51618;SDS011;38518;53.164;5.430;2022-09-13T07:23:33;4.40;;;1.25;;
51618;SDS011;38518;53.164;5.430;2022-09-13T07:26:00;3.70;;;1.10;;
51618;SDS011;38518;53.164;5.430;2022-09-13T07:28:29;4.65;;;1.38;;
51618;SDS011;38518;53.164;5.430;2022-09-13T07:31:10;3.45;;;1.30;;
51618;SDS011;38518;53.164;5.430;2022-09-13T07:33:38;4.78;;;1.27;;
51618;SDS011;38518;53.164;5.430;2022-09-13T07:36:06;7.93;;;1.30;;
51618;SDS011;38518;53.164;5.430;2022-09-13T07:38:33;4.35;;;1.25;;
51618;SDS011;38518;53.164;5.430;2022-09-13T07:41:03;4.75;;;1.50;;
51618;SDS011;38518;53.164;5.430;2022-09-13T07:43:31;5.38;;;1.20;;
51618;SDS011;38518;53.164;5.430;2022-09-13T07:46:07;4.07;;;1.33;;
51618;SDS011;38518;53.164;5.430;2022-09-13T07:48:35;4.07;;;1.58;;
51618;SDS011;38518;53.164;5.430;2022-09-13T07:51:06;4.18;;;1.50;;
51618;SDS011;38518;53.164;5.430;2022-09-13T07:53:33;6.95;;;1.33;;
51618;SDS011;38518;53.164;5.430;2022-09-13T07:56:00;4.22;;;1.20;;
51618;SDS011;38518;53.164;5.430;2022-09-13T07:58:29;5.07;;;1.30;;
51618;SDS011;38518;53.164;5.430;2022-09-13T08:00:58;3.75;;;1.10;;
51618;SDS011;38518;53.164;5.430;2022-09-13T08:03:30;4.78;;;1.40;;
51618;SDS011;38518;53.164;5.430;2022-09-13T08:05:59;6.03;;;1.42;;
51618;SDS011;38518;53.164;5.430;2022-09-13T08:08:26;5.88;;;1.27;;
51618;SDS011;38518;53.164;5.430;2022-09-13T08:10:54;4.25;;;1.13;;
51618;SDS011;38518;53.164;5.430;2022-09-13T08:13:21;6.40;;;1.50;;
51618;SDS011;38518;53.164;5.430;2022-09-13T08:15:47;4.90;;;1.30;;
51618;SDS011;38518;53.164;5.430;2022-09-13T08:18:14;4.25;;;1.20;;
51618;SDS011;38518;53.164;5.430;2022-09-13T08:20:40;4.75;;;1.40;;
51618;SDS011;38518;53.164;5.430;2022-09-13T08:23:06;4.82;;;1.40;;
51618;SDS011;38518;53.164;5.430;2022-09-13T08:25:37;4.90;;;1.35;;
51618;SDS011;38518;53.164;5.430;2022-09-13T08:28:07;4.13;;;1.30;;
51618;SDS011;38518;53.164;5.430;2022-09-13T08:30:35;6.43;;;1.45;;
51618;SDS011;38518;53.164;5.430;2022-09-13T08:33:05;5.57;;;1.33;;
51618;SDS011;38518;53.164;5.430;2022-09-13T08:35:31;4.18;;;1.67;;
51618;SDS011;38518;53.164;5.430;2022-09-13T08:37:57;5.45;;;1.30;;
51618;SDS011;38518;53.164;5.430;2022-09-13T08:40:24;5.65;;;1.48;;
51618;SDS011;38518;53.164;5.430;2022-09-13T08:45:20;3.03;;;1.30;;
51618;SDS011;38518;53.164;5.430;2022-09-13T08:50:40;3.40;;;1.10;;
51618;SDS011;38518;53.164;5.430;2022-09-13T09:01:19;3.53;;;1.33;;
51618;SDS011;38518;53.164;5.430;2022-09-13T09:04:00;3.90;;;1.20;;
51618;SDS011;38518;53.164;5.430;2022-09-13T09:06:46;4.43;;;1.23;;
51618;SDS011;38518;53.164;5.430;2022-09-13T09:09:16;4.07;;;1.40;;
51618;SDS011;38518;53.164;5.430;2022-09-13T09:14:41;4.00;;;1.40;;
51618;SDS011;38518;53.164;5.430;2022-09-13T09:17:16;3.80;;;1.30;;
51618;SDS011;38518;53.164;5.430;2022-09-13T09:19:47;3.70;;;1.10;;
51618;SDS011;38518;53.164;5.430;2022-09-13T09:22:37;6.63;;;1.60;;
51618;SDS011;38518;53.164;5.430;2022-09-13T09:25:03;4.55;;;1.35;;
51618;SDS011;38518;53.164;5.430;2022-09-13T09:27:30;5.65;;;1.30;;
51618;SDS011;38518;53.164;5.430;2022-09-13T09:29:58;3.78;;;1.20;;
51618;SDS011;38518;53.164;5.430;2022-09-13T09:41:02;3.90;;;1.20;;
51618;SDS011;38518;53.164;5.430;2022-09-13T09:43:32;2.72;;;1.10;;
51618;SDS011;38518;53.164;5.430;2022-09-13T09:46:04;2.75;;;1.08;;
51618;SDS011;38518;53.164;5.430;2022-09-13T09:48:41;5.45;;;1.30;;
51618;SDS011;38518;53.164;5.430;2022-09-13T09:51:12;3.45;;;1.30;;
51618;SDS011;38518;53.164;5.430;2022-09-13T09:53:43;3.90;;;1.20;;
51618;SDS011;38518;53.164;5.430;2022-09-13T09:56:16;5.45;;;1.38;;
51618;SDS011;38518;53.164;5.430;2022-09-13T09:58:53;2.00;;;1.20;;
51618;SDS011;38518;53.164;5.430;2022-09-13T10:01:36;2.80;;;0.98;;
51618;SDS011;38518;53.164;5.430;2022-09-13T10:04:14;4.13;;;1.30;;
51618;SDS011;38518;53.164;5.430;2022-09-13T10:06:44;3.80;;;1.10;;
51618;SDS011;38518;53.164;5.430;2022-09-13T10:09:18;2.80;;;1.23;;
51618;SDS011;38518;53.164;5.430;2022-09-13T10:11:49;4.57;;;1.33;;
51618;SDS011;38518;53.164;5.430;2022-09-13T10:14:42;3.70;;;1.33;;
51618;SDS011;38518;53.164;5.430;2022-09-13T10:17:15;2.25;;;1.02;;
51618;SDS011;38518;53.164;5.430;2022-09-13T10:20:24;2.47;;;1.10;;
51618;SDS011;38518;53.164;5.430;2022-09-13T10:22:39;3.22;;;0.98;;
51618;SDS011;38518;53.164;5.430;2022-09-13T10:25:14;2.85;;;1.00;;
51618;SDS011;38518;53.164;5.430;2022-09-13T10:27:48;5.72;;;1.27;;
51618;SDS011;38518;53.164;5.430;2022-09-13T10:33:25;4.78;;;1.15;;
51618;SDS011;38518;53.164;5.430;2022-09-13T10:35:56;3.90;;;1.13;;
51618;SDS011;38518;53.164;5.430;2022-09-13T10:38:38;3.35;;;1.30;;
51618;SDS011;38518;53.164;5.430;2022-09-13T10:41:08;3.42;;;1.40;;
51618;SDS011;38518;53.164;5.430;2022-09-13T10:43:45;3.33;;;1.20;;
51618;SDS011;38518;53.164;5.430;2022-09-13T10:46:13;3.10;;;1.20;;
51618;SDS011;38518;53.164;5.430;2022-09-13T10:48:46;3.42;;;1.00;;
51618;SDS011;38518;53.164;5.430;2022-09-13T10:51:35;3.97;;;1.17;;
51618;SDS011;38518;53.164;5.430;2022-09-13T10:54:06;3.28;;;1.10;;
51618;SDS011;38518;53.164;5.430;2022-09-13T10:56:44;3.05;;;1.10;;
51618;SDS011;38518;53.164;5.430;2022-09-13T10:59:25;2.90;;;1.40;;
51618;SDS011;38518;53.164;5.430;2022-09-13T11:07:21;3.97;;;1.60;;
51618;SDS011;38518;53.164;5.430;2022-09-13T11:18:39;3.28;;;1.60;;
51618;SDS011;38518;53.164;5.430;2022-09-13T11:46:35;5.40;;;1.40;;
51618;SDS011;38518;53.164;5.430;2022-09-13T11:55:02;5.28;;;1.75;;
51618;SDS011;38518;53.164;5.430;2022-09-13T11:57:51;4.88;;;1.42;;
51618;SDS011;38518;53.164;5.430;2022-09-13T12:06:04;5.28;;;1.40;;
51618;SDS011;38518;53.164;5.430;2022-09-13T12:08:44;5.85;;;1.48;;
51618;SDS011;38518;53.164;5.430;2022-09-13T12:14:16;4.53;;;1.50;;
51618;SDS011;38518;53.164;5.430;2022-09-13T12:16:47;5.63;;;1.50;;
51618;SDS011;38518;53.164;5.430;2022-09-13T12:21:54;7.68;;;1.50;;
51618;SDS011;38518;53.164;5.430;2022-09-13T12:24:31;7.05;;;1.90;;
51618;SDS011;38518;53.164;5.430;2022-09-13T12:27:05;4.85;;;1.70;;
51618;SDS011;38518;53.164;5.430;2022-09-13T12:29:52;5.00;;;1.55;;
51618;SDS011;38518;53.164;5.430;2022-09-13T12:32:20;4.38;;;1.50;;
51618;SDS011;38518;53.164;5.430;2022-09-13T12:43:31;3.70;;;1.38;;
51618;SDS011;38518;53.164;5.430;2022-09-13T13:03:40;4.00;;;1.58;;
51618;SDS011;38518;53.164;5.430;2022-09-13T13:09:03;4.93;;;1.40;;
51618;SDS011;38518;53.164;5.430;2022-09-13T13:11:46;4.35;;;1.45;;
51618;SDS011;38518;53.164;5.430;2022-09-13T13:14:27;9.50;;;1.77;;
51618;SDS011;38518;53.164;5.430;2022-09-13T13:31:58;3.75;;;1.55;;
51618;SDS011;38518;53.164;5.430;2022-09-13T13:34:25;4.63;;;1.50;;
51618;SDS011;38518;53.164;5.430;2022-09-13T13:36:59;4.07;;;1.60;;
51618;SDS011;38518;53.164;5.430;2022-09-13T13:41:55;6.15;;;1.50;;
51618;SDS011;38518;53.164;5.430;2022-09-13T14:00:23;5.72;;;1.48;;
51618;SDS011;38518;53.164;5.430;2022-09-13T14:05:32;6.85;;;1.63;;
51618;SDS011;38518;53.164;5.430;2022-09-13T14:16:51;3.97;;;1.50;;
51618;SDS011;38518;53.164;5.430;2022-09-13T14:19:47;5.38;;;1.33;;
51618;SDS011;38518;53.164;5.430;2022-09-13T14:22:22;3.47;;;1.40;;
51618;SDS011;38518;53.164;5.430;2022-09-13T14:24:51;5.72;;;1.63;;
51618;SDS011;38518;53.164;5.430;2022-09-13T14:27:25;5.53;;;1.45;;
51618;SDS011;38518;53.164;5.430;2022-09-13T14:29:54;5.43;;;1.40;;
51618;SDS011;38518;53.164;5.430;2022-09-13T14:32:23;3.60;;;1.17;;
51618;SDS011;38518;53.164;5.430;2022-09-13T14:34:56;5.55;;;1.30;;
51618;SDS011;38518;53.164;5.430;2022-09-13T14:37:25;4.93;;;1.20;;
51618;SDS011;38518;53.164;5.430;2022-09-13T14:39:56;3.05;;;1.20;;
51618;SDS011;38518;53.164;5.430;2022-09-13T14:42:39;5.38;;;1.33;;
51618;SDS011;38518;53.164;5.430;2022-09-13T14:45:18;3.78;;;1.30;;
51618;SDS011;38518;53.164;5.430;2022-09-13T14:50:21;3.92;;;1.30;;
51618;SDS011;38518;53.164;5.430;2022-09-13T14:55:20;4.05;;;1.13;;
51618;SDS011;38518;53.164;5.430;2022-09-13T14:57:59;4.35;;;1.42;;
51618;SDS011;38518;53.164;5.430;2022-09-13T15:00:32;4.43;;;1.27;;
51618;SDS011;38518;53.164;5.430;2022-09-13T15:03:13;4.30;;;1.50;;
51618;SDS011;38518;53.164;5.430;2022-09-13T15:05:48;5.18;;;1.60;;
51618;SDS011;38518;53.164;5.430;2022-09-13T15:10:51;4.78;;;1.45;;
51618;SDS011;38518;53.164;5.430;2022-09-13T15:13:20;5.68;;;1.30;;
51618;SDS011;38518;53.164;5.430;2022-09-13T15:15:53;2.88;;;1.20;;
51618;SDS011;38518;53.164;5.430;2022-09-13T15:23:29;4.85;;;1.42;;
51618;SDS011;38518;53.164;5.430;2022-09-13T15:31:19;4.57;;;1.70;;
51618;SDS011;38518;53.164;5.430;2022-09-13T15:36:41;3.78;;;1.30;;
51618;SDS011;38518;53.164;5.430;2022-09-13T15:41:36;3.35;;;1.30;;
51618;SDS011;38518;53.164;5.430;2022-09-13T15:44:05;4.88;;;1.50;;
51618;SDS011;38518;53.164;5.430;2022-09-13T15:46:33;5.38;;;1.60;;
51618;SDS011;38518;53.164;5.430;2022-09-13T15:49:14;6.28;;;1.77;;
51618;SDS011;38518;53.164;5.430;2022-09-13T15:51:42;7.03;;;1.40;;
51618;SDS011;38518;53.164;5.430;2022-09-13T15:54:12;4.90;;;1.50;;
51618;SDS011;38518;53.164;5.430;2022-09-13T15:56:40;5.85;;;1.50;;
51618;SDS011;38518;53.164;5.430;2022-09-13T15:59:15;5.63;;;1.42;;
51618;SDS011;38518;53.164;5.430;2022-09-13T16:01:42;3.05;;;1.10;;
51618;SDS011;38518;53.164;5.430;2022-09-13T16:04:09;3.75;;;1.30;;
51618;SDS011;38518;53.164;5.430;2022-09-13T16:06:36;5.30;;;1.40;;
51618;SDS011;38518;53.164;5.430;2022-09-13T16:09:22;5.72;;;1.42;;
51618;SDS011;38518;53.164;5.430;2022-09-13T16:11:49;3.40;;;1.20;;
51618;SDS011;38518;53.164;5.430;2022-09-13T16:14:16;6.45;;;1.55;;
51618;SDS011;38518;53.164;5.430;2022-09-13T16:16:43;3.42;;;0.95;;
51618;SDS011;38518;53.164;5.430;2022-09-13T16:19:20;6.22;;;1.45;;
51618;SDS011;38518;53.164;5.430;2022-09-13T16:21:47;4.72;;;1.25;;
51618;SDS011;38518;53.164;5.430;2022-09-13T16:24:14;3.60;;;1.27;;
51618;SDS011;38518;53.164;5.430;2022-09-13T16:26:40;3.92;;;1.45;;
51618;SDS011;38518;53.164;5.430;2022-09-13T16:29:08;3.97;;;1.05;;
51618;SDS011;38518;53.164;5.430;2022-09-13T16:31:35;5.95;;;1.00;;
51618;SDS011;38518;53.164;5.430;2022-09-13T16:34:01;3.80;;;1.02;;
51618;SDS011;38518;53.164;5.430;2022-09-13T16:36:27;3.58;;;0.90;;
51618;SDS011;38518;53.164;5.430;2022-09-13T16:38:56;3.83;;;1.20;;
51618;SDS011;38518;53.164;5.430;2022-09-13T16:41:22;1.42;;;0.70;;
51618;SDS011;38518;53.164;5.430;2022-09-13T16:43:48;4.53;;;1.00;;
51618;SDS011;38518;53.164;5.430;2022-09-13T16:46:14;3.30;;;0.93;;
51618;SDS011;38518;53.164;5.430;2022-09-13T16:48:40;4.00;;;0.90;;
51618;SDS011;38518;53.164;5.430;2022-09-13T16:51:08;3.38;;;1.15;;
51618;SDS011;38518;53.164;5.430;2022-09-13T16:53:36;2.22;;;0.85;;
51618;SDS011;38518;53.164;5.430;2022-09-13T16:56:11;3.83;;;1.00;;
51618;SDS011;38518;53.164;5.430;2022-09-13T16:58:39;3.13;;;1.00;;
51618;SDS011;38518;53.164;5.430;2022-09-13T17:01:08;2.92;;;1.20;;
51618;SDS011;38518;53.164;5.430;2022-09-13T17:03:35;6.80;;;1.48;;
51618;SDS011;38518;53.164;5.430;2022-09-13T17:06:11;2.60;;;1.10;;
51618;SDS011;38518;53.164;5.430;2022-09-13T17:08:40;3.03;;;0.90;;
51618;SDS011;38518;53.164;5.430;2022-09-13T17:11:11;3.70;;;1.30;;
51618;SDS011;38518;53.164;5.430;2022-09-13T17:13:39;3.03;;;0.90;;
51618;SDS011;38518;53.164;5.430;2022-09-13T17:16:06;1.83;;;1.00;;
51618;SDS011;38518;53.164;5.430;2022-09-13T17:18:44;5.78;;;1.15;;
51618;SDS011;38518;53.164;5.430;2022-09-13T17:21:10;4.45;;;1.02;;
51618;SDS011;38518;53.164;5.430;2022-09-13T17:23:35;3.45;;;1.23;;
51618;SDS011;38518;53.164;5.430;2022-09-13T17:26:01;3.55;;;1.00;;
51618;SDS011;38518;53.164;5.430;2022-09-13T17:28:27;4.68;;;0.95;;
51618;SDS011;38518;53.164;5.430;2022-09-13T17:30:53;3.05;;;0.93;;
51618;SDS011;38518;53.164;5.430;2022-09-13T17:33:19;2.70;;;0.82;;
51618;SDS011;38518;53.164;5.430;2022-09-13T17:35:45;3.35;;;0.93;;
51618;SDS011;38518;53.164;5.430;2022-09-13T17:38:11;3.95;;;0.90;;
51618;SDS011;38518;53.164;5.430;2022-09-13T17:40:39;3.97;;;1.00;;
51618;SDS011;38518;53.164;5.430;2022-09-13T17:43:05;3.15;;;0.90;;
51618;SDS011;38518;53.164;5.430;2022-09-13T17:45:31;2.90;;;1.00;;
51618;SDS011;38518;53.164;5.430;2022-09-13T17:47:58;4.72;;;1.27;;
51618;SDS011;38518;53.164;5.430;2022-09-13T17:50:24;2.90;;;1.30;;
51618;SDS011;38518;53.164;5.430;2022-09-13T17:52:49;2.47;;;0.90;;
51618;SDS011;38518;53.164;5.430;2022-09-13T17:55:15;2.30;;;1.10;;
51618;SDS011;38518;53.164;5.430;2022-09-13T17:57:41;4.15;;;1.00;;
51618;SDS011;38518;53.164;5.430;2022-09-13T18:00:07;3.90;;;1.10;;
51618;SDS011;38518;53.164;5.430;2022-09-13T18:02:36;3.90;;;1.50;;
51618;SDS011;38518;53.164;5.430;2022-09-13T18:05:02;2.92;;;1.13;;
51618;SDS011;38518;53.164;5.430;2022-09-13T18:07:28;6.57;;;1.30;;
51618;SDS011;38518;53.164;5.430;2022-09-13T18:09:54;4.60;;;1.23;;
51618;SDS011;38518;53.164;5.430;2022-09-13T18:12:20;4.07;;;1.27;;
51618;SDS011;38518;53.164;5.430;2022-09-13T18:14:45;6.03;;;1.33;;
51618;SDS011;38518;53.164;5.430;2022-09-13T18:17:11;4.00;;;1.10;;
51618;SDS011;38518;53.164;5.430;2022-09-13T18:19:38;3.13;;;1.15;;
51618;SDS011;38518;53.164;5.430;2022-09-13T18:22:05;4.00;;;1.20;;
51618;SDS011;38518;53.164;5.430;2022-09-13T18:24:31;6.13;;;1.10;;
51618;SDS011;38518;53.164;5.430;2022-09-13T18:26:58;3.50;;;1.10;;
51618;SDS011;38518;53.164;5.430;2022-09-13T18:29:24;4.88;;;1.10;;
51618;SDS011;38518;53.164;5.430;2022-09-13T18:31:53;5.53;;;1.20;;
51618;SDS011;38518;53.164;5.430;2022-09-13T18:34:19;6.75;;;1.52;;
51618;SDS011;38518;53.164;5.430;2022-09-13T18:36:45;4.57;;;1.45;;
51618;SDS011;38518;53.164;5.430;2022-09-13T18:39:14;5.32;;;1.52;;
51618;SDS011;38518;53.164;5.430;2022-09-13T18:41:41;5.65;;;1.27;;
51618;SDS011;38518;53.164;5.430;2022-09-13T18:44:09;4.82;;;1.40;;
51618;SDS011;38518;53.164;5.430;2022-09-13T18:46:36;2.40;;;0.90;;
51618;SDS011;38518;53.164;5.430;2022-09-13T18:49:02;7.75;;;1.52;;
51618;SDS011;38518;53.164;5.430;2022-09-13T18:51:30;6.75;;;1.40;;
51618;SDS011;38518;53.164;5.430;2022-09-13T18:53:58;2.33;;;1.00;;
51618;SDS011;38518;53.164;5.430;2022-09-13T18:56:25;2.42;;;1.00;;
51618;SDS011;38518;53.164;5.430;2022-09-13T18:58:52;3.53;;;1.15;;
51618;SDS011;38518;53.164;5.430;2022-09-13T19:01:23;3.78;;;1.05;;